sensor_id;sensor_type;location;lat;lon;timestamp;pressure;altitude;pressure_sealevel;temperature;humidity
64551;BME280;50945;44.472;-123.352;2022-11-21T00:00:51;101325.09;;;5.24;66.69
64551;BME280;50945;44.472;-123.352;2022-11-21T00:03:18;101328.91;;;5.22;66.66
64551;BME280;50945;44.472;-123.352;2022-11-21T00:05:47;101331.00;;;5.18;66.77
64551;BME280;50945;44.472;-123.352;2022-11-21T00:08:16;101325.81;;;5.15;66.71
64551;BME280;50945;44.472;-123.352;2022-11-21T00:10:43;101327.06;;;5.11;67.09
64551;BME280;50945;44.472;-123.352;2022-11-21T00:13:17;101335.31;;;5.09;66.93
64551;BME280;50945;44.472;-123.352;2022-11-21T00:15:43;101330.91;;;5.08;66.37
64551;BME280;50945;44.472;-123.352;2022-11-21T00:18:10;101325.50;;;5.08;66.66
64551;BME280;50945;44.472;-123.352;2022-11-21T00:20:38;101319.19;;;5.08;66.70
64551;BME280;50945;44.472;-123.352;2022-11-21T00:23:04;101314.03;;;5.05;64.53
64551;BME280;50945;44.472;-123.352;2022-11-21T00:25:30;101318.56;;;5.04;66.82
64551;BME280;50945;44.472;-123.352;2022-11-21T00:27:57;101321.69;;;5.00;66.99
64551;BME280;50945;44.472;-123.352;2022-11-21T00:30:24;101319.56;;;4.92;66.74
64551;BME280;50945;44.472;-123.352;2022-11-21T00:32:50;101324.66;;;4.85;66.75
64551;BME280;50945;44.472;-123.352;2022-11-21T00:35:17;101325.13;;;4.79;67.07
64551;BME280;50945;44.472;-123.352;2022-11-21T00:37:43;101321.19;;;4.72;67.51
64551;BME280;50945;44.472;-123.352;2022-11-21T00:40:10;101318.09;;;4.65;67.06
64551;BME280;50945;44.472;-123.352;2022-11-21T00:42:36;101318.72;;;4.57;67.50
64551;BME280;50945;44.472;-123.352;2022-11-21T00:45:03;101323.75;;;4.51;68.03
64551;BME280;50945;44.472;-123.352;2022-11-21T00:47:29;101327.22;;;4.42;68.11
64551;BME280;50945;44.472;-123.352;2022-11-21T00:49:56;101324.22;;;4.33;68.60
64551;BME280;50945;44.472;-123.352;2022-11-21T00:52:22;101323.13;;;4.25;68.46
64551;BME280;50945;44.472;-123.352;2022-11-21T00:54:49;101323.72;;;4.17;68.73
64551;BME280;50945;44.472;-123.352;2022-11-21T00:57:15;101326.91;;;4.11;68.70
64551;BME280;50945;44.472;-123.352;2022-11-21T00:59:41;101317.53;;;4.04;68.85
64551;BME280;50945;44.472;-123.352;2022-11-21T01:02:07;101320.97;;;3.94;69.61
64551;BME280;50945;44.472;-123.352;2022-11-21T01:04:35;101328.69;;;3.88;69.42
64551;BME280;50945;44.472;-123.352;2022-11-21T01:07:01;101329.16;;;3.81;69.58
64551;BME280;50945;44.472;-123.352;2022-11-21T01:09:28;101331.47;;;3.75;69.67
64551;BME280;50945;44.472;-123.352;2022-11-21T01:11:55;101330.69;;;3.73;69.86
64551;BME280;50945;44.472;-123.352;2022-11-21T01:14:22;101338.28;;;3.68;69.91
64551;BME280;50945;44.472;-123.352;2022-11-21T01:16:49;101337.81;;;3.63;70.06
64551;BME280;50945;44.472;-123.352;2022-11-21T01:19:15;101343.56;;;3.58;70.20
64551;BME280;50945;44.472;-123.352;2022-11-21T01:21:42;101333.22;;;3.52;70.33
64551;BME280;50945;44.472;-123.352;2022-11-21T01:24:10;101330.00;;;3.47;70.99
64551;BME280;50945;44.472;-123.352;2022-11-21T01:26:37;101336.84;;;3.39;70.79
64551;BME280;50945;44.472;-123.352;2022-11-21T01:29:06;101324.13;;;3.29;71.46
64551;BME280;50945;44.472;-123.352;2022-11-21T01:31:33;101339.03;;;3.21;71.49
64551;BME280;50945;44.472;-123.352;2022-11-21T01:34:00;101336.91;;;3.14;71.54
64551;BME280;50945;44.472;-123.352;2022-11-21T01:36:32;101330.00;;;3.10;71.68
64551;BME280;50945;44.472;-123.352;2022-11-21T01:39:02;101335.63;;;3.07;71.91
64551;BME280;50945;44.472;-123.352;2022-11-21T01:41:32;101335.97;;;3.02;71.74
64551;BME280;50945;44.472;-123.352;2022-11-21T01:44:00;101332.63;;;2.98;71.81
64551;BME280;50945;44.472;-123.352;2022-11-21T01:46:27;101328.41;;;2.94;71.55
64551;BME280;50945;44.472;-123.352;2022-11-21T01:49:05;101341.28;;;2.91;71.91
64551;BME280;50945;44.472;-123.352;2022-11-21T01:51:49;101343.34;;;2.87;72.01
64551;BME280;50945;44.472;-123.352;2022-11-21T01:54:40;101349.22;;;2.81;72.55
64551;BME280;50945;44.472;-123.352;2022-11-21T02:02:17;101346.09;;;2.61;73.32
64551;BME280;50945;44.472;-123.352;2022-11-21T02:04:46;101346.50;;;2.55;73.17
64551;BME280;50945;44.472;-123.352;2022-11-21T02:07:15;101346.72;;;2.52;72.67
64551;BME280;50945;44.472;-123.352;2022-11-21T02:09:45;101348.13;;;2.45;73.36
64551;BME280;50945;44.472;-123.352;2022-11-21T02:12:56;101349.31;;;2.41;73.42
64551;BME280;50945;44.472;-123.352;2022-11-21T02:15:23;101356.88;;;2.36;73.32
64551;BME280;50945;44.472;-123.352;2022-11-21T02:17:51;101357.22;;;2.31;73.47
64551;BME280;50945;44.472;-123.352;2022-11-21T02:20:20;101348.47;;;2.27;73.70
64551;BME280;50945;44.472;-123.352;2022-11-21T02:25:31;101347.94;;;2.22;73.86
64551;BME280;50945;44.472;-123.352;2022-11-21T02:28:02;101351.78;;;2.18;73.96
64551;BME280;50945;44.472;-123.352;2022-11-21T02:30:32;101347.69;;;2.13;73.84
64551;BME280;50945;44.472;-123.352;2022-11-21T02:33:00;101355.03;;;2.11;73.95
64551;BME280;50945;44.472;-123.352;2022-11-21T02:35:26;101347.13;;;2.07;73.97
64551;BME280;50945;44.472;-123.352;2022-11-21T02:38:00;101338.38;;;2.04;74.44
64551;BME280;50945;44.472;-123.352;2022-11-21T02:40:35;101340.44;;;2.00;74.47
64551;BME280;50945;44.472;-123.352;2022-11-21T02:43:23;101351.31;;;1.99;74.17
64551;BME280;50945;44.472;-123.352;2022-11-21T02:45:50;101343.47;;;1.96;74.76
64551;BME280;50945;44.472;-123.352;2022-11-21T02:48:17;101347.13;;;1.95;74.74
64551;BME280;50945;44.472;-123.352;2022-11-21T02:50:45;101351.66;;;1.94;74.46
64551;BME280;50945;44.472;-123.352;2022-11-21T02:53:14;101354.44;;;1.93;74.91
64551;BME280;50945;44.472;-123.352;2022-11-21T02:55:42;101359.09;;;1.90;74.69
64551;BME280;50945;44.472;-123.352;2022-11-21T02:58:09;101356.69;;;1.86;74.74
64551;BME280;50945;44.472;-123.352;2022-11-21T03:00:41;101351.50;;;1.83;75.51
64551;BME280;50945;44.472;-123.352;2022-11-21T03:03:08;101353.53;;;1.79;75.05
64551;BME280;50945;44.472;-123.352;2022-11-21T03:05:35;101356.47;;;1.76;74.80
64551;BME280;50945;44.472;-123.352;2022-11-21T03:08:02;101345.03;;;1.73;76.21
64551;BME280;50945;44.472;-123.352;2022-11-21T03:10:29;101348.69;;;1.71;75.11
64551;BME280;50945;44.472;-123.352;2022-11-21T03:12:59;101343.38;;;1.70;75.09
64551;BME280;50945;44.472;-123.352;2022-11-21T03:15:31;101344.25;;;1.70;75.73
64551;BME280;50945;44.472;-123.352;2022-11-21T03:18:02;101356.75;;;1.71;75.17
64551;BME280;50945;44.472;-123.352;2022-11-21T03:20:29;101351.56;;;1.68;77.46
64551;BME280;50945;44.472;-123.352;2022-11-21T03:22:55;101353.84;;;1.62;75.30
64551;BME280;50945;44.472;-123.352;2022-11-21T03:25:22;101358.75;;;1.55;75.44
64551;BME280;50945;44.472;-123.352;2022-11-21T03:27:52;101348.38;;;1.49;75.68
64551;BME280;50945;44.472;-123.352;2022-11-21T03:30:24;101342.22;;;1.47;75.72
64551;BME280;50945;44.472;-123.352;2022-11-21T03:32:55;101338.69;;;1.46;75.56
64551;BME280;50945;44.472;-123.352;2022-11-21T03:35:21;101351.41;;;1.44;76.36
64551;BME280;50945;44.472;-123.352;2022-11-21T03:37:48;101358.59;;;1.44;75.65
64551;BME280;50945;44.472;-123.352;2022-11-21T03:40:14;101352.25;;;1.45;75.89
64551;BME280;50945;44.472;-123.352;2022-11-21T03:42:44;101345.03;;;1.45;75.84
64551;BME280;50945;44.472;-123.352;2022-11-21T03:45:10;101352.34;;;1.43;75.81
64551;BME280;50945;44.472;-123.352;2022-11-21T03:47:37;101342.56;;;1.42;75.92
64551;BME280;50945;44.472;-123.352;2022-11-21T03:50:03;101351.50;;;1.43;75.63
64551;BME280;50945;44.472;-123.352;2022-11-21T03:52:30;101344.34;;;1.42;75.48
64551;BME280;50945;44.472;-123.352;2022-11-21T03:54:56;101346.28;;;1.40;75.87
64551;BME280;50945;44.472;-123.352;2022-11-21T03:57:23;101342.84;;;1.38;76.01
64551;BME280;50945;44.472;-123.352;2022-11-21T03:59:50;101340.06;;;1.39;76.08
64551;BME280;50945;44.472;-123.352;2022-11-21T04:02:19;101340.91;;;1.40;76.13
64551;BME280;50945;44.472;-123.352;2022-11-21T04:04:46;101332.63;;;1.43;76.14
64551;BME280;50945;44.472;-123.352;2022-11-21T04:07:12;101335.13;;;1.46;75.37
64551;BME280;50945;44.472;-123.352;2022-11-21T04:09:42;101341.19;;;1.49;75.74
64551;BME280;50945;44.472;-123.352;2022-11-21T04:12:08;101334.25;;;1.45;76.24
64551;BME280;50945;44.472;-123.352;2022-11-21T04:14:35;101342.75;;;1.39;76.02
64551;BME280;50945;44.472;-123.352;2022-11-21T04:17:04;101343.69;;;1.38;76.23
64551;BME280;50945;44.472;-123.352;2022-11-21T04:19:31;101341.00;;;1.38;76.31
64551;BME280;50945;44.472;-123.352;2022-11-21T04:21:57;101353.34;;;1.42;75.87
64551;BME280;50945;44.472;-123.352;2022-11-21T04:24:27;101349.75;;;1.42;75.84
64551;BME280;50945;44.472;-123.352;2022-11-21T04:26:54;101354.28;;;1.41;76.22
64551;BME280;50945;44.472;-123.352;2022-11-21T04:29:20;101366.00;;;1.40;75.89
64551;BME280;50945;44.472;-123.352;2022-11-21T04:31:47;101367.84;;;1.40;76.25
64551;BME280;50945;44.472;-123.352;2022-11-21T04:34:13;101357.06;;;1.40;76.27
64551;BME280;50945;44.472;-123.352;2022-11-21T04:36:40;101341.75;;;1.40;76.27
64551;BME280;50945;44.472;-123.352;2022-11-21T04:39:06;101347.16;;;1.40;76.78
64551;BME280;50945;44.472;-123.352;2022-11-21T04:41:33;101346.19;;;1.41;76.87
64551;BME280;50945;44.472;-123.352;2022-11-21T04:43:59;101351.50;;;1.43;76.49
64551;BME280;50945;44.472;-123.352;2022-11-21T04:46:25;101346.97;;;1.43;76.96
64551;BME280;50945;44.472;-123.352;2022-11-21T04:48:52;101343.22;;;1.46;76.80
64551;BME280;50945;44.472;-123.352;2022-11-21T04:51:18;101349.56;;;1.45;77.15
64551;BME280;50945;44.472;-123.352;2022-11-21T04:53:45;101338.88;;;1.43;77.01
64551;BME280;50945;44.472;-123.352;2022-11-21T04:56:11;101351.50;;;1.43;77.03
64551;BME280;50945;44.472;-123.352;2022-11-21T04:58:42;101350.72;;;1.41;76.09
64551;BME280;50945;44.472;-123.352;2022-11-21T05:01:09;101351.88;;;1.37;77.11
64551;BME280;50945;44.472;-123.352;2022-11-21T05:03:36;101352.88;;;1.36;77.22
64551;BME280;50945;44.472;-123.352;2022-11-21T05:06:02;101355.84;;;1.31;77.56
64551;BME280;50945;44.472;-123.352;2022-11-21T05:08:29;101352.41;;;1.29;77.91
64551;BME280;50945;44.472;-123.352;2022-11-21T05:10:55;101353.47;;;1.26;77.80
64551;BME280;50945;44.472;-123.352;2022-11-21T05:13:40;101347.09;;;1.27;78.39
64551;BME280;50945;44.472;-123.352;2022-11-21T05:16:06;101349.69;;;1.29;78.12
64551;BME280;50945;44.472;-123.352;2022-11-21T05:18:33;101359.53;;;1.30;77.85
64551;BME280;50945;44.472;-123.352;2022-11-21T05:21:00;101360.19;;;1.33;77.57
64551;BME280;50945;44.472;-123.352;2022-11-21T05:23:27;101359.09;;;1.36;77.31
64551;BME280;50945;44.472;-123.352;2022-11-21T05:25:53;101347.47;;;1.36;77.38
64551;BME280;50945;44.472;-123.352;2022-11-21T05:28:20;101357.25;;;1.37;77.90
64551;BME280;50945;44.472;-123.352;2022-11-21T05:30:46;101360.84;;;1.37;77.76
64551;BME280;50945;44.472;-123.352;2022-11-21T05:33:12;101349.97;;;1.39;78.22
64551;BME280;50945;44.472;-123.352;2022-11-21T05:35:39;101340.81;;;1.41;77.70
64551;BME280;50945;44.472;-123.352;2022-11-21T05:38:05;101345.13;;;1.44;77.07
64551;BME280;50945;44.472;-123.352;2022-11-21T05:40:32;101343.22;;;1.46;77.19
64551;BME280;50945;44.472;-123.352;2022-11-21T05:42:58;101345.91;;;1.46;77.23
64551;BME280;50945;44.472;-123.352;2022-11-21T05:45:43;101354.94;;;1.45;77.08
64551;BME280;50945;44.472;-123.352;2022-11-21T05:48:09;101355.91;;;1.44;77.24
64551;BME280;50945;44.472;-123.352;2022-11-21T05:50:38;101349.56;;;1.45;77.63
64551;BME280;50945;44.472;-123.352;2022-11-21T05:53:05;101344.06;;;1.46;77.89
64551;BME280;50945;44.472;-123.352;2022-11-21T05:55:34;101352.06;;;1.48;77.65
64551;BME280;50945;44.472;-123.352;2022-11-21T05:58:00;101347.63;;;1.47;78.30
64551;BME280;50945;44.472;-123.352;2022-11-21T06:00:28;101355.91;;;1.44;77.99
64551;BME280;50945;44.472;-123.352;2022-11-21T06:02:55;101360.63;;;1.40;78.47
64551;BME280;50945;44.472;-123.352;2022-11-21T06:05:40;101354.69;;;1.35;78.83
64551;BME280;50945;44.472;-123.352;2022-11-21T06:08:06;101351.44;;;1.30;78.84
64551;BME280;50945;44.472;-123.352;2022-11-21T06:10:33;101357.97;;;1.26;78.86
64551;BME280;50945;44.472;-123.352;2022-11-21T06:13:00;101361.75;;;1.23;79.34
64551;BME280;50945;44.472;-123.352;2022-11-21T06:15:27;101362.03;;;1.19;78.91
64551;BME280;50945;44.472;-123.352;2022-11-21T06:17:53;101364.81;;;1.17;79.48
64551;BME280;50945;44.472;-123.352;2022-11-21T06:20:20;101374.66;;;1.18;79.24
64551;BME280;50945;44.472;-123.352;2022-11-21T06:22:46;101372.03;;;1.17;79.74
64551;BME280;50945;44.472;-123.352;2022-11-21T06:25:12;101370.44;;;1.14;79.93
64551;BME280;50945;44.472;-123.352;2022-11-21T06:27:39;101364.16;;;1.13;79.75
64551;BME280;50945;44.472;-123.352;2022-11-21T06:30:05;101362.44;;;1.12;79.71
64551;BME280;50945;44.472;-123.352;2022-11-21T06:32:36;101363.59;;;1.08;80.01
64551;BME280;50945;44.472;-123.352;2022-11-21T06:35:02;101359.09;;;1.09;79.77
64551;BME280;50945;44.472;-123.352;2022-11-21T06:37:29;101368.97;;;1.08;79.86
64551;BME280;50945;44.472;-123.352;2022-11-21T06:39:55;101374.25;;;1.10;79.62
64551;BME280;50945;44.472;-123.352;2022-11-21T06:42:22;101373.31;;;1.11;79.52
64551;BME280;50945;44.472;-123.352;2022-11-21T06:44:48;101378.69;;;1.11;79.33
64551;BME280;50945;44.472;-123.352;2022-11-21T06:47:15;101366.19;;;1.10;79.38
64551;BME280;50945;44.472;-123.352;2022-11-21T06:49:41;101367.06;;;1.10;79.57
64551;BME280;50945;44.472;-123.352;2022-11-21T06:52:07;101374.16;;;1.11;79.77
64551;BME280;50945;44.472;-123.352;2022-11-21T06:54:34;101371.38;;;1.13;79.79
64551;BME280;50945;44.472;-123.352;2022-11-21T06:57:00;101373.13;;;1.14;79.88
64551;BME280;50945;44.472;-123.352;2022-11-21T06:59:27;101370.34;;;1.16;80.18
64551;BME280;50945;44.472;-123.352;2022-11-21T07:01:53;101375.59;;;1.17;80.44
64551;BME280;50945;44.472;-123.352;2022-11-21T07:04:19;101369.44;;;1.15;80.17
64551;BME280;50945;44.472;-123.352;2022-11-21T07:06:46;101366.00;;;1.13;79.98
64551;BME280;50945;44.472;-123.352;2022-11-21T07:09:12;101381.69;;;1.06;79.99
64551;BME280;50945;44.472;-123.352;2022-11-21T07:11:39;101371.31;;;1.00;79.67
64551;BME280;50945;44.472;-123.352;2022-11-21T07:14:05;101376.88;;;0.97;79.90
64551;BME280;50945;44.472;-123.352;2022-11-21T07:16:32;101376.22;;;0.93;80.02
64551;BME280;50945;44.472;-123.352;2022-11-21T07:18:59;101370.94;;;0.92;80.38
64551;BME280;50945;44.472;-123.352;2022-11-21T07:21:25;101365.44;;;0.93;80.85
64551;BME280;50945;44.472;-123.352;2022-11-21T07:23:52;101375.28;;;0.94;80.86
64551;BME280;50945;44.472;-123.352;2022-11-21T07:26:18;101369.78;;;0.96;80.77
64551;BME280;50945;44.472;-123.352;2022-11-21T07:28:44;101373.25;;;0.98;81.17
64551;BME280;50945;44.472;-123.352;2022-11-21T07:31:11;101375.03;;;0.98;80.92
64551;BME280;50945;44.472;-123.352;2022-11-21T07:33:37;101380.44;;;0.98;81.17
64551;BME280;50945;44.472;-123.352;2022-11-21T07:36:04;101387.56;;;0.99;80.73
64551;BME280;50945;44.472;-123.352;2022-11-21T07:38:30;101401.13;;;0.97;80.91
64551;BME280;50945;44.472;-123.352;2022-11-21T07:40:56;101384.97;;;0.97;80.79
64551;BME280;50945;44.472;-123.352;2022-11-21T07:43:23;101385.94;;;0.96;80.68
64551;BME280;50945;44.472;-123.352;2022-11-21T07:45:49;101392.38;;;0.93;80.98
64551;BME280;50945;44.472;-123.352;2022-11-21T07:48:15;101390.66;;;0.92;81.26
64551;BME280;50945;44.472;-123.352;2022-11-21T07:50:42;101399.50;;;0.94;81.31
64551;BME280;50945;44.472;-123.352;2022-11-21T07:53:09;101400.34;;;0.95;81.31
64551;BME280;50945;44.472;-123.352;2022-11-21T07:55:36;101396.59;;;0.98;80.88
64551;BME280;50945;44.472;-123.352;2022-11-21T07:58:06;101389.19;;;1.01;80.51
64551;BME280;50945;44.472;-123.352;2022-11-21T08:00:34;101395.22;;;1.05;80.21
64551;BME280;50945;44.472;-123.352;2022-11-21T08:03:03;101386.97;;;1.08;80.31
64551;BME280;50945;44.472;-123.352;2022-11-21T08:05:30;101387.63;;;1.11;80.08
64551;BME280;50945;44.472;-123.352;2022-11-21T08:07:56;101390.22;;;1.13;80.05
64551;BME280;50945;44.472;-123.352;2022-11-21T08:10:22;101398.97;;;1.17;80.24
64551;BME280;50945;44.472;-123.352;2022-11-21T08:12:49;101395.25;;;1.19;79.93
64551;BME280;50945;44.472;-123.352;2022-11-21T08:15:15;101389.84;;;1.19;79.62
64551;BME280;50945;44.472;-123.352;2022-11-21T08:17:41;101399.66;;;1.20;79.67
64551;BME280;50945;44.472;-123.352;2022-11-21T08:20:09;101399.75;;;1.19;79.90
64551;BME280;50945;44.472;-123.352;2022-11-21T08:22:39;101392.41;;;1.21;79.85
64551;BME280;50945;44.472;-123.352;2022-11-21T08:25:07;101385.22;;;1.21;79.74
64551;BME280;50945;44.472;-123.352;2022-11-21T08:27:35;101386.09;;;1.22;79.56
64551;BME280;50945;44.472;-123.352;2022-11-21T08:30:02;101386.00;;;1.23;79.92
64551;BME280;50945;44.472;-123.352;2022-11-21T08:32:28;101378.75;;;1.24;79.92
64551;BME280;50945;44.472;-123.352;2022-11-21T08:34:54;101375.22;;;1.23;80.19
64551;BME280;50945;44.472;-123.352;2022-11-21T08:37:21;101374.34;;;1.23;80.25
64551;BME280;50945;44.472;-123.352;2022-11-21T08:39:47;101377.16;;;1.21;80.63
64551;BME280;50945;44.472;-123.352;2022-11-21T08:42:13;101384.34;;;1.21;80.31
64551;BME280;50945;44.472;-123.352;2022-11-21T08:44:40;101377.53;;;1.15;80.24
64551;BME280;50945;44.472;-123.352;2022-11-21T08:47:06;101379.47;;;1.13;80.24
64551;BME280;50945;44.472;-123.352;2022-11-21T08:49:32;101381.28;;;1.12;80.19
64551;BME280;50945;44.472;-123.352;2022-11-21T08:51:59;101386.97;;;1.08;80.54
64551;BME280;50945;44.472;-123.352;2022-11-21T08:54:26;101383.69;;;1.03;80.83
64551;BME280;50945;44.472;-123.352;2022-11-21T08:56:52;101382.00;;;1.02;81.12
64551;BME280;50945;44.472;-123.352;2022-11-21T08:59:18;101389.09;;;1.03;81.15
64551;BME280;50945;44.472;-123.352;2022-11-21T09:01:45;101387.28;;;1.03;81.03
64551;BME280;50945;44.472;-123.352;2022-11-21T09:04:12;101375.53;;;1.04;80.68
64551;BME280;50945;44.472;-123.352;2022-11-21T09:06:38;101387.06;;;1.06;80.72
64551;BME280;50945;44.472;-123.352;2022-11-21T09:09:05;101383.41;;;1.07;80.55
64551;BME280;50945;44.472;-123.352;2022-11-21T09:11:32;101381.69;;;1.06;80.42
64551;BME280;50945;44.472;-123.352;2022-11-21T09:13:58;101386.41;;;1.03;80.53
64551;BME280;50945;44.472;-123.352;2022-11-21T09:16:43;101370.31;;;1.01;80.93
64551;BME280;50945;44.472;-123.352;2022-11-21T09:19:27;101382.09;;;1.00;81.19
64551;BME280;50945;44.472;-123.352;2022-11-21T09:21:54;101378.53;;;1.00;81.31
64551;BME280;50945;44.472;-123.352;2022-11-21T09:24:20;101386.50;;;1.01;81.30
64551;BME280;50945;44.472;-123.352;2022-11-21T09:26:46;101375.72;;;1.01;80.99
64551;BME280;50945;44.472;-123.352;2022-11-21T09:29:13;101368.53;;;1.02;81.12
64551;BME280;50945;44.472;-123.352;2022-11-21T09:31:43;101372.06;;;1.02;80.58
64551;BME280;50945;44.472;-123.352;2022-11-21T09:34:09;101364.75;;;1.04;80.88
64551;BME280;50945;44.472;-123.352;2022-11-21T09:36:36;101361.97;;;1.06;80.81
64551;BME280;50945;44.472;-123.352;2022-11-21T09:39:03;101361.97;;;1.06;80.60
64551;BME280;50945;44.472;-123.352;2022-11-21T09:46:46;101366.50;;;1.05;81.18
64551;BME280;50945;44.472;-123.352;2022-11-21T09:49:15;101374.84;;;1.01;80.76
64551;BME280;50945;44.472;-123.352;2022-11-21T09:51:43;101371.69;;;0.94;80.93
64551;BME280;50945;44.472;-123.352;2022-11-21T09:54:23;101361.03;;;0.92;80.73
64551;BME280;50945;44.472;-123.352;2022-11-21T09:56:53;101353.91;;;0.91;80.97
64551;BME280;50945;44.472;-123.352;2022-11-21T10:01:47;101369.00;;;0.94;81.03
64551;BME280;50945;44.472;-123.352;2022-11-21T10:04:13;101372.34;;;0.98;80.65
64551;BME280;50945;44.472;-123.352;2022-11-21T10:07:07;101354.31;;;1.00;80.83
64551;BME280;50945;44.472;-123.352;2022-11-21T10:12:32;101358.41;;;1.05;81.16
64551;BME280;50945;44.472;-123.352;2022-11-21T10:23:43;101361.78;;;1.09;81.37
64551;BME280;50945;44.472;-123.352;2022-11-21T10:28:58;101379.75;;;1.08;80.76
64551;BME280;50945;44.472;-123.352;2022-11-21T10:31:32;101370.81;;;1.08;80.99
64551;BME280;50945;44.472;-123.352;2022-11-21T10:34:02;101380.63;;;1.09;80.59
64551;BME280;50945;44.472;-123.352;2022-11-21T10:36:42;101383.31;;;1.09;81.06
64551;BME280;50945;44.472;-123.352;2022-11-21T10:39:17;101379.88;;;1.07;81.05
64551;BME280;50945;44.472;-123.352;2022-11-21T10:42:04;101369.94;;;1.07;81.66
64551;BME280;50945;44.472;-123.352;2022-11-21T10:44:35;101375.34;;;1.07;81.21
64551;BME280;50945;44.472;-123.352;2022-11-21T10:47:22;101372.66;;;1.07;81.32
64551;BME280;50945;44.472;-123.352;2022-11-21T10:50:11;101362.63;;;1.09;81.23
64551;BME280;50945;44.472;-123.352;2022-11-21T10:53:35;101362.63;;;1.09;81.41
64551;BME280;50945;44.472;-123.352;2022-11-21T10:56:07;101373.41;;;1.09;81.81
64551;BME280;50945;44.472;-123.352;2022-11-21T10:58:49;101356.06;;;1.13;83.45
64551;BME280;50945;44.472;-123.352;2022-11-21T11:01:36;101352.44;;;1.14;81.97
64551;BME280;50945;44.472;-123.352;2022-11-21T11:06:39;101357.22;;;1.24;81.10
64551;BME280;50945;44.472;-123.352;2022-11-21T11:09:06;101352.59;;;1.26;81.13
64551;BME280;50945;44.472;-123.352;2022-11-21T11:11:33;101353.34;;;1.28;80.83
64551;BME280;50945;44.472;-123.352;2022-11-21T11:14:01;101351.44;;;1.30;81.02
64551;BME280;50945;44.472;-123.352;2022-11-21T11:16:31;101344.13;;;1.32;81.16
64551;BME280;50945;44.472;-123.352;2022-11-21T11:19:16;101349.50;;;1.32;81.32
64551;BME280;50945;44.472;-123.352;2022-11-21T11:21:45;101344.41;;;1.27;81.32
64551;BME280;50945;44.472;-123.352;2022-11-21T11:29:30;101346.75;;;1.19;81.36
64551;BME280;50945;44.472;-123.352;2022-11-21T11:32:25;101330.03;;;1.14;82.52
64551;BME280;50945;44.472;-123.352;2022-11-21T11:34:59;101333.69;;;1.13;82.17
64551;BME280;50945;44.472;-123.352;2022-11-21T11:37:54;101344.34;;;1.14;82.09
64551;BME280;50945;44.472;-123.352;2022-11-21T11:40:49;101338.09;;;1.14;82.81
64551;BME280;50945;44.472;-123.352;2022-11-21T11:46:41;101352.44;;;1.14;82.18
64551;BME280;50945;44.472;-123.352;2022-11-21T11:49:48;101338.97;;;1.14;82.07
64551;BME280;50945;44.472;-123.352;2022-11-21T11:55:53;101362.25;;;1.16;81.21
64551;BME280;50945;44.472;-123.352;2022-11-21T12:04:16;101367.16;;;1.09;82.72
64551;BME280;50945;44.472;-123.352;2022-11-21T12:10:02;101371.56;;;1.10;82.62
64551;BME280;50945;44.472;-123.352;2022-11-21T12:12:38;101370.44;;;1.14;82.46
64551;BME280;50945;44.472;-123.352;2022-11-21T12:15:25;101370.22;;;1.17;82.70
64551;BME280;50945;44.472;-123.352;2022-11-21T12:23:37;101369.41;;;1.29;81.65
64551;BME280;50945;44.472;-123.352;2022-11-21T12:34:49;101372.19;;;1.28;82.51
64551;BME280;50945;44.472;-123.352;2022-11-21T12:39:59;101382.03;;;1.29;82.92
64551;BME280;50945;44.472;-123.352;2022-11-21T12:45:33;101367.59;;;1.30;83.09
64551;BME280;50945;44.472;-123.352;2022-11-21T12:51:16;101372.19;;;1.28;82.92
64551;BME280;50945;44.472;-123.352;2022-11-21T12:57:12;101367.13;;;1.23;83.18
64551;BME280;50945;44.472;-123.352;2022-11-21T13:00:07;101369.91;;;1.22;83.13
64551;BME280;50945;44.472;-123.352;2022-11-21T13:05:36;101365.19;;;1.25;82.87
64551;BME280;50945;44.472;-123.352;2022-11-21T13:08:28;101359.72;;;1.27;83.48
64551;BME280;50945;44.472;-123.352;2022-11-21T13:16:44;101383.44;;;1.35;83.12
64551;BME280;50945;44.472;-123.352;2022-11-21T13:21:55;101368.94;;;1.37;83.55
64551;BME280;50945;44.472;-123.352;2022-11-21T13:27:36;101375.28;;;1.36;84.10
64551;BME280;50945;44.472;-123.352;2022-11-21T13:38:15;101371.31;;;1.42;83.60
64551;BME280;50945;44.472;-123.352;2022-11-21T13:40:41;101370.34;;;1.43;83.35
64551;BME280;50945;44.472;-123.352;2022-11-21T13:43:30;101358.50;;;1.45;83.32
64551;BME280;50945;44.472;-123.352;2022-11-21T13:45:56;101354.94;;;1.45;82.88
64551;BME280;50945;44.472;-123.352;2022-11-21T13:51:21;101358.72;;;1.42;83.74
64551;BME280;50945;44.472;-123.352;2022-11-21T14:07:43;101349.34;;;1.48;82.63
64551;BME280;50945;44.472;-123.352;2022-11-21T14:10:31;101358.41;;;1.47;83.19
64551;BME280;50945;44.472;-123.352;2022-11-21T14:13:00;101362.47;;;1.40;82.97
64551;BME280;50945;44.472;-123.352;2022-11-21T14:15:46;101362.88;;;1.33;83.47
64551;BME280;50945;44.472;-123.352;2022-11-21T14:18:24;101352.41;;;1.29;83.22
64551;BME280;50945;44.472;-123.352;2022-11-21T14:20:54;101352.69;;;1.24;83.46
64551;BME280;50945;44.472;-123.352;2022-11-21T14:23:24;101354.72;;;1.21;83.33
64551;BME280;50945;44.472;-123.352;2022-11-21T14:26:15;101345.31;;;1.13;83.18
64551;BME280;50945;44.472;-123.352;2022-11-21T14:28:40;101350.03;;;1.10;83.68
64551;BME280;50945;44.472;-123.352;2022-11-21T14:31:09;101351.84;;;1.09;83.81
64551;BME280;50945;44.472;-123.352;2022-11-21T14:33:46;101352.06;;;1.06;83.85
64551;BME280;50945;44.472;-123.352;2022-11-21T14:36:24;101343.13;;;1.06;84.04
64551;BME280;50945;44.472;-123.352;2022-11-21T14:38:53;101351.28;;;1.04;83.80
64551;BME280;50945;44.472;-123.352;2022-11-21T14:46:40;101353.22;;;1.02;84.05
64551;BME280;50945;44.472;-123.352;2022-11-21T14:51:47;101350.06;;;0.95;83.91